createdAt,value
2022-09-16T00:00:45.835Z,100265.66
2022-09-16T00:03:14.949Z,100264.28
2022-09-16T00:05:43.880Z,100268.84
2022-09-16T00:08:12.376Z,100269.91
2022-09-16T00:10:43.762Z,100270.19
2022-09-16T00:13:11.938Z,100267.72
2022-09-16T00:15:43.855Z,100263.44
2022-09-16T00:18:12.180Z,100269.59
2022-09-16T00:20:45.148Z,100259.72
2022-09-16T00:23:12.877Z,100254.59
2022-09-16T00:25:42.019Z,100268.00
2022-09-16T00:28:10.205Z,100268.81
2022-09-16T00:30:38.403Z,100269.88
2022-09-16T00:33:06.238Z,100269.88
2022-09-16T00:35:34.459Z,100270.94
2022-09-16T00:38:02.206Z,100266.63
2022-09-16T00:40:30.069Z,100263.94
2022-09-16T00:43:00.552Z,100268.50
2022-09-16T00:45:31.696Z,100264.22
2022-09-16T00:48:03.210Z,100264.47
2022-09-16T00:50:38.414Z,100262.88
2022-09-16T00:53:07.286Z,100263.38
2022-09-16T00:55:38.578Z,100265.50
2022-09-16T00:58:14.430Z,100268.41
2022-09-16T01:00:43.966Z,100272.66
2022-09-16T01:03:12.042Z,100268.63
2022-09-16T01:05:40.793Z,100279.84
2022-09-16T01:08:08.565Z,100272.88
2022-09-16T01:10:36.376Z,100270.13
2022-09-16T01:13:09.656Z,100277.88
2022-09-16T01:15:45.220Z,100277.34
2022-09-16T01:18:23.127Z,100272.50
2022-09-16T01:21:19.263Z,100269.28
2022-09-16T01:24:30.473Z,100273.81
2022-09-16T01:27:26.317Z,100272.16
2022-09-16T01:30:39.907Z,100278.31
2022-09-16T01:33:17.714Z,100270.53
2022-09-16T01:35:58.553Z,100267.31
2022-09-16T01:38:36.429Z,100275.81
2022-09-16T01:41:11.465Z,100272.34
2022-09-16T01:43:54.586Z,100272.88
2022-09-16T01:46:31.554Z,100277.09
2022-09-16T01:49:03.797Z,100262.34
2022-09-16T01:51:38.977Z,100259.69
2022-09-16T01:54:13.255Z,100266.09
2022-09-16T01:56:46.062Z,100254.00
2022-09-16T01:59:20.376Z,100265.56
2022-09-16T02:01:55.346Z,100264.75
2022-09-16T02:04:31.071Z,100267.13
2022-09-16T02:07:03.589Z,100255.31
2022-09-16T02:09:35.840Z,100258.03
2022-09-16T02:12:09.734Z,100265.50
2022-09-16T02:14:42.263Z,100272.94
2022-09-16T02:17:12.691Z,100271.34
2022-09-16T02:19:45.542Z,100272.41
2022-09-16T02:22:17.841Z,100259.53
2022-09-16T02:24:48.940Z,100268.88
2022-09-16T02:27:19.526Z,100265.41
2022-09-16T02:29:52.428Z,100253.31
2022-09-16T02:32:22.696Z,100267.44
2022-09-16T02:34:54.446Z,100266.91
2022-09-16T02:37:26.626Z,100261.56
2022-09-16T02:40:02.525Z,100264.22
2022-09-16T02:42:31.697Z,100265.78
2022-09-16T02:45:01.285Z,100268.72
2022-09-16T02:47:33.122Z,100261.44
2022-09-16T02:50:11.458Z,100274.84
2022-09-16T02:52:45.371Z,100267.09
2022-09-16T02:55:23.142Z,100275.66
2022-09-16T02:57:52.006Z,100265.22
2022-09-16T03:00:20.614Z,100267.91
2022-09-16T03:02:48.520Z,100263.34
2022-09-16T03:05:18.102Z,100262.56
2022-09-16T03:07:45.950Z,100263.63
2022-09-16T03:10:15.061Z,100263.03
2022-09-16T03:12:56.694Z,100258.50
2022-09-16T03:15:47.898Z,100255.59
2022-09-16T03:18:34.232Z,100264.66
2022-09-16T03:21:09.228Z,100266.28
2022-09-16T03:23:49.651Z,100272.66
2022-09-16T03:26:26.488Z,100270.81
2022-09-16T03:29:04.762Z,100273.47
2022-09-16T03:31:39.877Z,100269.19
2022-09-16T03:34:15.189Z,100257.66
2022-09-16T03:36:46.177Z,100251.88
2022-09-16T03:39:15.969Z,100253.47
2022-09-16T03:41:44.807Z,100253.16
2022-09-16T03:44:12.570Z,100248.34
2022-09-16T03:46:40.956Z,100248.56
2022-09-16T03:49:08.713Z,100253.63
2022-09-16T03:51:36.550Z,100256.53
2022-09-16T03:54:06.432Z,100256.78
2022-09-16T03:56:34.184Z,100265.06
2022-09-16T03:59:01.985Z,100262.88
2022-09-16T04:01:30.429Z,100266.34
2022-09-16T04:03:58.234Z,100266.59
2022-09-16T04:06:25.937Z,100262.31
2022-09-16T04:08:54.426Z,100258.00
2022-09-16T04:11:23.557Z,100256.41
2022-09-16T04:13:51.365Z,100257.47
2022-09-16T04:16:22.558Z,100253.19
2022-09-16T04:18:50.442Z,100263.28
2022-09-16T04:21:19.146Z,100251.56
2022-09-16T04:23:47.325Z,100250.78
2022-09-16T04:26:15.595Z,100251.78
2022-09-16T04:28:44.824Z,100250.19
2022-09-16T04:31:14.163Z,100251.00
2022-09-16T04:33:43.554Z,100247.25
2022-09-16T04:36:13.818Z,100239.75
2022-09-16T04:38:42.945Z,100248.59
2022-09-16T04:41:13.862Z,100253.66
2022-09-16T04:43:42.969Z,100246.63
2022-09-16T04:46:15.812Z,100260.06
2022-09-16T04:48:44.059Z,100247.78
2022-09-16T04:51:14.198Z,100254.72
2022-09-16T04:53:44.210Z,100257.84
2022-09-16T04:56:16.111Z,100257.03
2022-09-16T04:58:45.432Z,100252.78
2022-09-16T05:01:17.744Z,100256.50
2022-09-16T05:03:47.916Z,100248.97
2022-09-16T05:06:20.675Z,100262.31
2022-09-16T05:08:49.039Z,100246.00
2022-09-16T05:11:19.268Z,100254.25
2022-09-16T05:13:48.145Z,100247.03
2022-09-16T05:16:21.464Z,100254.03
2022-09-16T05:18:51.451Z,100262.50
2022-09-16T05:21:20.731Z,100269.13
2022-09-16T05:23:49.495Z,100271.81
2022-09-16T05:26:20.625Z,100272.06
2022-09-16T05:28:48.442Z,100283.81
2022-09-16T05:31:21.813Z,100273.13
2022-09-16T05:33:56.103Z,100273.38
2022-09-16T05:36:25.010Z,100293.94
2022-09-16T05:39:18.170Z,100280.59
2022-09-16T05:41:40.950Z,100283.25
2022-09-16T05:44:08.920Z,100272.56
2022-09-16T05:46:40.748Z,100278.94
2022-09-16T05:49:08.556Z,100286.16
2022-09-16T05:51:38.117Z,100283.72
2022-09-16T05:54:06.641Z,100282.84
2022-09-16T05:56:34.884Z,100296.22
2022-09-16T05:59:03.326Z,100294.34
2022-09-16T06:01:33.065Z,100288.13
2022-09-16T06:04:07.318Z,100285.72
2022-09-16T06:06:36.875Z,100289.91
2022-09-16T06:09:07.562Z,100291.78
2022-09-16T06:11:38.608Z,100293.66
2022-09-16T06:14:07.121Z,100298.66
2022-09-16T06:16:35.335Z,100291.38
2022-09-16T06:19:07.451Z,100292.72
2022-09-16T06:21:35.218Z,100294.59
2022-09-16T06:24:03.372Z,100294.28
2022-09-16T06:26:31.744Z,100298.81
2022-09-16T06:28:59.473Z,100296.63
2022-09-16T06:31:28.681Z,100301.16
2022-09-16T06:33:57.241Z,100303.03
2022-09-16T06:36:28.093Z,100281.75
2022-09-16T06:38:55.901Z,100296.63
2022-09-16T06:41:24.564Z,100288.63
2022-09-16T06:43:52.786Z,100288.63
2022-09-16T06:46:22.978Z,100289.19
2022-09-16T06:48:52.799Z,100292.44
2022-09-16T06:51:24.483Z,100297.84
2022-09-16T06:53:56.406Z,100298.41
2022-09-16T06:56:24.160Z,100302.47
2022-09-16T06:58:53.290Z,100307.53
2022-09-16T07:01:23.237Z,100314.50
2022-09-16T07:03:52.921Z,100316.69
2022-09-16T07:06:26.632Z,100322.81
2022-09-16T07:09:07.684Z,100308.16
2022-09-16T07:11:35.638Z,100306.56
2022-09-16T07:14:03.353Z,100304.94
2022-09-16T07:16:31.138Z,100318.78
2022-09-16T07:19:01.283Z,100314.00
2022-09-16T07:21:30.514Z,100318.03
2022-09-16T07:23:59.770Z,100319.91
2022-09-16T07:26:31.089Z,100327.44
2022-09-16T07:29:02.250Z,100327.66
2022-09-16T07:31:32.322Z,100324.69
2022-09-16T07:34:04.271Z,100331.72
2022-09-16T07:36:37.656Z,100333.84
2022-09-16T07:39:06.501Z,100347.41
2022-09-16T07:41:38.720Z,100340.47
2022-09-16T07:44:07.825Z,100348.13
2022-09-16T07:46:37.590Z,100336.34
2022-09-16T07:49:08.188Z,100323.22
2022-09-16T07:51:36.767Z,100329.88
2022-09-16T07:54:06.471Z,100331.97
2022-09-16T07:56:38.400Z,100338.91
2022-09-16T07:59:11.075Z,100344.75
2022-09-16T08:01:43.516Z,100343.13
2022-09-16T08:04:12.229Z,100335.59
2022-09-16T08:06:41.242Z,100333.50
2022-09-16T08:09:34.251Z,100329.78
2022-09-16T08:11:59.451Z,100323.41
2022-09-16T08:14:27.162Z,100330.34
2022-09-16T08:16:55.111Z,100321.88
2022-09-16T08:19:23.309Z,100326.94
2022-09-16T08:21:52.177Z,100328.34
2022-09-16T08:24:20.320Z,100327.03
2022-09-16T08:26:48.185Z,100330.03
2022-09-16T08:29:17.799Z,100341.84
2022-09-16T08:31:45.915Z,100345.06
2022-09-16T08:34:13.651Z,100350.97
2022-09-16T08:36:41.679Z,100349.44
2022-09-16T08:39:11.945Z,100340.34
2022-09-16T08:42:14.367Z,100355.41
2022-09-16T08:44:50.947Z,100363.44
2022-09-16T08:47:36.436Z,100371.44
2022-09-16T08:50:07.244Z,100388.75
2022-09-16T08:52:38.466Z,100390.06
2022-09-16T08:55:11.313Z,100393.19
2022-09-16T08:57:44.092Z,100398.72
2022-09-16T09:00:17.522Z,100401.06
2022-09-16T09:02:53.287Z,100393.59
2022-09-16T09:05:48.383Z,100402.16
2022-09-16T09:08:41.466Z,100398.69
2022-09-16T09:11:14.629Z,100405.31
2022-09-16T09:14:03.894Z,100403.47
2022-09-16T09:16:44.291Z,100405.47
2022-09-16T09:19:35.804Z,100409.53
2022-09-16T09:22:13.722Z,100409.78
2022-09-16T09:25:02.539Z,100406.50
2022-09-16T09:27:38.098Z,100406.50
2022-09-16T09:30:18.559Z,100402.72
2022-09-16T09:33:41.845Z,100405.38
2022-09-16T09:36:28.460Z,100398.13
2022-09-16T09:39:32.805Z,100396.00
2022-09-16T09:42:07.741Z,100385.88
2022-09-16T09:44:48.840Z,100392.63
2022-09-16T09:47:23.868Z,100377.41
2022-09-16T09:49:57.313Z,100382.59
2022-09-16T09:52:32.759Z,100382.91
2022-09-16T09:55:05.840Z,100375.81
2022-09-16T09:57:41.022Z,100372.81
2022-09-16T10:00:16.113Z,100366.56
2022-09-16T10:02:49.788Z,100365.66
2022-09-16T10:05:23.330Z,100364.31
2022-09-16T10:07:53.613Z,100371.41
2022-09-16T10:10:24.685Z,100368.94
2022-09-16T10:12:52.636Z,100368.09
2022-09-16T10:15:23.428Z,100375.72
2022-09-16T10:17:53.130Z,100380.13
2022-09-16T10:20:29.233Z,100380.81
2022-09-16T10:23:01.551Z,100376.66
2022-09-16T10:25:31.875Z,100369.75
2022-09-16T10:28:01.374Z,100372.22
2022-09-16T10:30:34.430Z,100357.03
2022-09-16T10:33:04.596Z,100346.84
2022-09-16T10:35:36.451Z,100350.69
2022-09-16T10:38:14.473Z,100355.25
2022-09-16T10:40:53.055Z,100353.94
2022-09-16T10:43:22.098Z,100376.34
2022-09-16T10:45:51.674Z,100392.28
2022-09-16T10:48:22.090Z,100393.97
2022-09-16T10:50:56.340Z,100364.97
2022-09-16T10:53:30.636Z,100368.00
2022-09-16T10:56:01.089Z,100373.50
2022-09-16T10:58:29.416Z,100383.22
2022-09-16T11:01:21.816Z,100384.47
2022-09-16T11:04:28.294Z,100387.09
2022-09-16T11:07:09.254Z,100393.97
2022-09-16T11:09:45.553Z,100386.47
2022-09-16T11:12:41.400Z,100392.38
2022-09-16T11:15:21.149Z,100395.84
2022-09-16T11:18:04.130Z,100390.81
2022-09-16T11:21:14.114Z,100394.84
2022-09-16T11:24:03.919Z,100398.25
2022-09-16T11:26:41.026Z,100394.38
2022-09-16T11:29:34.572Z,100391.69
2022-09-16T11:32:13.127Z,100399.38
2022-09-16T11:34:55.574Z,100398.91
2022-09-16T11:37:31.798Z,100414.81
2022-09-16T11:40:16.617Z,100411.25
2022-09-16T11:42:53.389Z,100416.53
2022-09-16T11:45:40.110Z,100412.72
2022-09-16T11:48:24.667Z,100414.25
2022-09-16T11:51:04.325Z,100411.84
2022-09-16T11:53:46.626Z,100424.28
2022-09-16T11:56:21.076Z,100431.97
2022-09-16T11:58:51.664Z,100436.41
2022-09-16T12:01:30.375Z,100437.13
2022-09-16T12:04:05.004Z,100437.88
2022-09-16T12:06:42.061Z,100439.41
2022-09-16T12:09:17.956Z,100453.13
2022-09-16T12:11:52.311Z,100447.97
2022-09-16T12:14:23.830Z,100445.44
2022-09-16T12:16:56.205Z,100444.22
2022-09-16T12:19:29.494Z,100429.97
2022-09-16T12:22:04.981Z,100432.56
2022-09-16T12:24:37.655Z,100442.53
2022-09-16T12:27:16.089Z,100429.59
2022-09-16T12:29:50.258Z,100427.28
2022-09-16T12:32:26.378Z,100422.97
2022-09-16T12:34:59.354Z,100419.28
2022-09-16T12:37:35.381Z,100416.19
2022-09-16T12:40:04.458Z,100432.19
2022-09-16T12:42:57.437Z,100431.69
2022-09-16T12:45:54.971Z,100435.28
2022-09-16T12:48:44.357Z,100431.88
2022-09-16T12:51:32.766Z,100437.56
2022-09-16T12:55:03.967Z,100444.75
2022-09-16T12:57:45.805Z,100434.97
2022-09-16T13:00:22.533Z,100440.31
2022-09-16T13:02:54.134Z,100433.59
2022-09-16T13:05:30.932Z,100433.81
2022-09-16T13:08:05.167Z,100434.16
2022-09-16T13:10:54.375Z,100430.94
2022-09-16T13:13:32.849Z,100423.88
2022-09-16T13:16:02.566Z,100424.56
2022-09-16T13:18:42.678Z,100429.16
2022-09-16T13:21:24.011Z,100421.47
2022-09-16T13:24:00.933Z,100415.66
2022-09-16T13:26:39.776Z,100412.03
2022-09-16T13:29:32.474Z,100407.75
2022-09-16T13:32:00.321Z,100414.22
2022-09-16T13:34:28.527Z,100408.41
2022-09-16T13:36:56.594Z,100414.66
2022-09-16T13:39:33.123Z,100410.66
2022-09-16T13:42:12.500Z,100413.91
2022-09-16T13:44:44.794Z,100443.94
2022-09-16T13:47:30.831Z,100471.06
2022-09-16T13:50:03.446Z,100471.22
2022-09-16T13:52:33.530Z,100444.13
2022-09-16T13:55:11.770Z,100440.31
2022-09-16T13:57:52.933Z,100448.56
2022-09-16T14:00:24.677Z,100434.09
2022-09-16T14:03:08.408Z,100439.06
2022-09-16T14:06:03.016Z,100444.19
2022-09-16T14:08:40.526Z,100441.84
2022-09-16T14:11:15.495Z,100438.72
2022-09-16T14:13:46.349Z,100432.44
2022-09-16T14:16:21.344Z,100429.06
2022-09-16T14:18:56.745Z,100429.97
2022-09-16T14:21:25.310Z,100435.75
2022-09-16T14:26:23.678Z,100435.38
2022-09-16T14:28:51.905Z,100426.06
2022-09-16T14:31:23.802Z,100422.94
2022-09-16T14:33:56.768Z,100435.22
2022-09-16T14:36:26.911Z,100443.06
2022-09-16T14:38:58.960Z,100439.59
2022-09-16T14:41:31.928Z,100442.00
2022-09-16T14:44:08.483Z,100451.78
2022-09-16T14:46:43.568Z,100449.53
2022-09-16T14:49:13.304Z,100437.13
2022-09-16T14:51:45.429Z,100435.84
2022-09-16T14:54:18.886Z,100432.75
2022-09-16T14:56:56.936Z,100425.53
2022-09-16T14:59:28.316Z,100426.97
2022-09-16T15:02:02.555Z,100416.09
2022-09-16T15:04:34.298Z,100422.94
2022-09-16T15:07:11.944Z,100413.09
2022-09-16T15:09:46.485Z,100421.44
2022-09-16T15:12:29.217Z,100419.59
2022-09-16T15:14:58.005Z,100420.16
2022-09-16T15:17:29.176Z,100409.50
2022-09-16T15:19:59.092Z,100408.53
2022-09-16T15:22:28.040Z,100413.41
2022-09-16T15:24:58.389Z,100417.78
2022-09-16T15:27:28.780Z,100408.28
2022-09-16T15:29:59.958Z,100420.09
2022-09-16T15:32:32.064Z,100418.78
2022-09-16T15:35:17.440Z,100418.44
2022-09-16T15:37:46.016Z,100418.53
2022-09-16T15:40:35.759Z,100422.84
2022-09-16T15:43:13.194Z,100423.66
2022-09-16T15:45:41.646Z,100424.94
2022-09-16T15:48:17.997Z,100424.47
2022-09-16T15:50:49.989Z,100422.84
2022-09-16T15:53:23.792Z,100432.72
2022-09-16T15:56:01.521Z,100428.75
2022-09-16T15:58:42.474Z,100428.03
2022-09-16T16:01:17.521Z,100436.75
2022-09-16T16:03:57.153Z,100436.28
2022-09-16T16:06:47.234Z,100431.97
2022-09-16T16:09:31.915Z,100442.63
2022-09-16T16:12:01.967Z,100451.47
2022-09-16T16:14:33.264Z,100446.13
2022-09-16T16:17:18.547Z,100436.75
2022-09-16T16:19:50.526Z,100448.47
2022-09-16T16:22:19.327Z,100450.00
2022-09-16T16:24:47.404Z,100446.25
2022-09-16T16:27:15.539Z,100454.75
2022-09-16T16:29:43.293Z,100459.50
2022-09-16T16:32:13.379Z,100461.28
2022-09-16T16:34:43.082Z,100470.09
2022-09-16T16:37:33.679Z,100473.72
2022-09-16T16:40:03.981Z,100467.72
2022-09-16T16:42:32.238Z,100475.47
2022-09-16T16:44:59.978Z,100480.31
2022-09-16T16:47:27.758Z,100488.22
2022-09-16T16:49:56.111Z,100500.63
2022-09-16T16:52:25.204Z,100499.22
2022-09-16T16:54:52.917Z,100500.06
2022-09-16T16:57:21.042Z,100509.00
2022-09-16T16:59:48.796Z,100512.13
2022-09-16T17:02:17.314Z,100508.53
2022-09-16T17:04:45.044Z,100516.75
2022-09-16T17:07:28.413Z,100509.72
2022-09-16T17:09:58.860Z,100512.25
2022-09-16T17:12:26.996Z,100514.44
2022-09-16T17:14:55.491Z,100509.25
2022-09-16T17:17:26.535Z,100512.94
2022-09-16T17:19:58.801Z,100514.09
2022-09-16T17:22:26.533Z,100520.47
2022-09-16T17:24:54.260Z,100527.41
2022-09-16T17:27:25.676Z,100512.56
2022-09-16T17:29:53.430Z,100520.91
2022-09-16T17:32:21.238Z,100517.50
2022-09-16T17:34:49.269Z,100529.97
2022-09-16T17:37:19.776Z,100520.66
2022-09-16T17:39:48.716Z,100516.38
2022-09-16T17:42:16.691Z,100524.38
2022-09-16T17:44:45.801Z,100531.66
2022-09-16T17:47:14.113Z,100528.53
2022-09-16T17:49:41.862Z,100533.97
2022-09-16T17:52:09.592Z,100522.88
2022-09-16T17:54:37.636Z,100526.72
2022-09-16T17:57:05.505Z,100525.19
2022-09-16T17:59:33.441Z,100518.66
2022-09-16T18:02:02.533Z,100528.63
2022-09-16T18:04:31.109Z,100526.53
2022-09-16T18:06:59.139Z,100537.78
2022-09-16T18:09:26.950Z,100533.28
2022-09-16T18:11:54.884Z,100535.13
2022-09-16T18:14:23.574Z,100528.16
2022-09-16T18:16:51.811Z,100534.53
2022-09-16T18:19:21.517Z,100540.09
2022-09-16T18:21:49.270Z,100545.03
2022-09-16T18:24:17.414Z,100553.47
2022-09-16T18:26:45.301Z,100561.09
2022-09-16T18:29:14.331Z,100558.66
2022-09-16T18:31:43.917Z,100561.63
2022-09-16T18:34:12.333Z,100564.53
2022-09-16T18:36:41.825Z,100558.41
2022-09-16T18:39:13.768Z,100561.63
2022-09-16T18:41:42.787Z,100564.88
2022-09-16T18:44:14.932Z,100571.38
2022-09-16T18:46:43.066Z,100567.66
2022-09-16T18:49:12.495Z,100568.84
2022-09-16T18:51:47.233Z,100575.94
2022-09-16T18:54:20.275Z,100573.88
2022-09-16T18:56:47.984Z,100575.28
2022-09-16T18:59:23.086Z,100570.53
2022-09-16T19:01:53.363Z,100564.63
2022-09-16T19:04:23.901Z,100581.31
2022-09-16T19:06:55.961Z,100565.69
2022-09-16T19:09:25.407Z,100562.00
2022-09-16T19:11:54.348Z,100562.00
2022-09-16T19:14:25.104Z,100562.81
2022-09-16T19:16:53.143Z,100564.66
2022-09-16T19:19:22.300Z,100579.59
2022-09-16T19:21:50.131Z,100589.66
2022-09-16T19:24:21.281Z,100589.44
2022-09-16T19:26:51.051Z,100585.59
2022-09-16T19:29:19.297Z,100584.56
2022-09-16T19:31:49.638Z,100590.69
2022-09-16T19:34:17.741Z,100584.31
2022-09-16T19:36:45.679Z,100589.09
2022-09-16T19:39:14.700Z,100578.44
2022-09-16T19:41:45.145Z,100571.50
2022-09-16T19:44:16.143Z,100563.38
2022-09-16T19:46:46.734Z,100549.44
2022-09-16T19:49:17.526Z,100552.44
2022-09-16T19:51:45.532Z,100565.09
2022-09-16T19:54:13.606Z,100566.78
2022-09-16T19:56:43.479Z,100568.03
2022-09-16T19:59:14.053Z,100561.53
2022-09-16T20:01:42.375Z,100570.00
2022-09-16T20:04:10.740Z,100571.22
2022-09-16T20:06:40.669Z,100567.06
2022-09-16T20:09:11.499Z,100579.09
2022-09-16T20:11:41.876Z,100583.81
2022-09-16T20:14:15.524Z,100579.75
2022-09-16T20:16:44.433Z,100568.78
2022-09-16T20:19:14.519Z,100563.88
2022-09-16T20:21:42.818Z,100563.28
2022-09-16T20:24:16.487Z,100563.13
2022-09-16T20:26:44.197Z,100570.53
2022-09-16T20:29:12.456Z,100577.94
2022-09-16T20:31:41.628Z,100581.41
2022-09-16T20:34:11.249Z,100583.28
2022-09-16T20:36:41.010Z,100579.44
2022-09-16T20:39:10.389Z,100580.47
2022-09-16T20:41:40.726Z,100597.44
2022-09-16T20:44:08.671Z,100585.19
2022-09-16T20:46:38.706Z,100588.31
2022-09-16T20:49:10.678Z,100582.97
2022-09-16T20:51:38.535Z,100581.00
2022-09-16T20:54:08.890Z,100577.38
2022-09-16T20:56:39.826Z,100584.31
2022-09-16T20:59:09.507Z,100581.50
2022-09-16T21:01:39.262Z,100593.19
2022-09-16T21:04:11.712Z,100585.22
2022-09-16T21:06:39.910Z,100590.38
2022-09-16T21:09:10.198Z,100584.44
2022-09-16T21:11:39.172Z,100581.22
2022-09-16T21:14:07.852Z,100595.53
2022-09-16T21:16:37.671Z,100585.72
2022-09-16T21:19:09.869Z,100589.03
2022-09-16T21:21:39.585Z,100588.56
2022-09-16T21:24:09.113Z,100601.28
2022-09-16T21:26:39.353Z,100594.34
2022-09-16T21:29:11.060Z,100607.25
2022-09-16T21:31:41.311Z,100606.22
2022-09-16T21:34:16.009Z,100612.97
2022-09-16T21:36:45.206Z,100619.75
2022-09-16T21:39:13.919Z,100602.59
2022-09-16T21:41:41.726Z,100604.19
2022-09-16T21:44:10.016Z,100603.72
2022-09-16T21:46:41.301Z,100602.91
2022-09-16T21:49:18.766Z,100603.94
2022-09-16T21:51:47.356Z,100600.41
2022-09-16T21:54:19.656Z,100603.66
2022-09-16T21:56:49.003Z,100596.56
2022-09-16T21:59:17.257Z,100599.97
2022-09-16T22:01:45.019Z,100603.22
2022-09-16T22:04:16.367Z,100595.09
2022-09-16T22:06:44.221Z,100596.50
2022-09-16T22:09:12.880Z,100598.94
2022-09-16T22:11:42.543Z,100591.19
2022-09-16T22:14:12.320Z,100594.66
2022-09-16T22:16:41.439Z,100593.03
2022-09-16T22:19:11.686Z,100593.03
2022-09-16T22:21:44.908Z,100595.69
2022-09-16T22:24:14.039Z,100598.56
2022-09-16T22:26:42.998Z,100597.16
2022-09-16T22:29:13.605Z,100592.66
2022-09-16T22:31:42.910Z,100580.53
2022-09-16T22:34:11.292Z,100593.31
2022-09-16T22:36:40.678Z,100595.97
2022-09-16T22:39:12.228Z,100596.78
2022-09-16T22:41:40.024Z,100599.66
2022-09-16T22:44:08.096Z,100607.84
2022-09-16T22:46:42.492Z,100608.47
2022-09-16T22:49:11.149Z,100616.03
2022-09-16T22:51:40.499Z,100618.13
2022-09-16T22:54:09.334Z,100623.88
2022-09-16T22:56:37.367Z,100621.44
2022-09-16T22:59:06.702Z,100612.03
2022-09-16T23:01:38.023Z,100608.81
2022-09-16T23:04:07.574Z,100607.19
2022-09-16T23:06:37.004Z,100603.72
2022-09-16T23:09:07.290Z,100607.19
2022-09-16T23:11:36.515Z,100613.34
2022-09-16T23:14:05.750Z,100605.38
2022-09-16T23:16:35.781Z,100599.06
2022-09-16T23:19:06.664Z,100605.38
2022-09-16T23:21:36.053Z,100600.53
2022-09-16T23:24:07.980Z,100595.19
2022-09-16T23:26:38.190Z,100603.97
2022-09-16T23:29:11.530Z,100601.91
2022-09-16T23:31:41.555Z,100602.72
2022-09-16T23:34:10.372Z,100601.09
2022-09-16T23:36:39.534Z,100607.44
2022-09-16T23:39:10.088Z,100616.84
2022-09-16T23:41:38.918Z,100615.44
2022-09-16T23:44:07.235Z,100639.50
2022-09-16T23:46:35.203Z,100641.13
2022-09-16T23:49:03.527Z,100637.66
2022-09-16T23:51:32.260Z,100635.00
2022-09-16T23:54:01.071Z,100634.19
2022-09-16T23:56:30.220Z,100636.84
2022-09-16T23:59:01.072Z,100636.84
